Universal, Pennsylvania
Current Conditions -  °F | °C
As of 5:53 PM on Wednesday 26 Nov 2014 (Local Time) from KAGC Reporting Station
Haze Haze  
Wind Chill: 32°   Ceiling: 300
Heat Index: 32°   Visibility: 2mi
Dew Point: 29°   Wind: 0mph
Humidity: 88%   Direction: NA
Pressure: 29.99"   Gusts: NA
Location:  40.4601°N, 79.8243°W
Report Text: KAGC 262253Z 00000KT 2SM UP BR OVC003 00/M02 A2999 RMK AO2 UPB50 SLP173 P0000 I1001 T00001017
Loading
Personal Weather Stations






























Interactive Weather Map New forecast layout! Learn more

10-Day Weather Forecast

Advertisements
Track Severe Weather on mobile